KDMO/DMO METAR and TAF weather

Enter ICAO airport designator
Station Type Date Time Source
KDMO METAR 2019/04/25 22:13 UTC NOAA

KDMO 252213Z AUTO VRB03KT 1/2SM +RA FG BKN028 BKN045 OVC055 15/14 A2977 RMK AO2 PK WND 36026/2202 LTG DSNT N RAB02 P0032 T01500139


Station Type Date Time Source
KDMO Decoded METAR 2019/04/25 22:13 UTC NOAA

SEDALIA MEMORIAL AIRPORT, MO, United States (KDMO) 38-43N 93-10W 274M
Apr 25, 2019 - 06:13 PM EDT / 2019.04.25 2213 UTC
Wind: Variable at 3 MPH (3 KT):0
Visibility: 1/2 mile(s):0
Sky conditions: overcast
Weather: heavy rain; fog; Lightning observed
Precipitation last hour: 0.32 inches
Temperature: 59.0 F (15.0 C)
Dew Point: 57.0 F (13.9 C)
Relative Humidity: 93%
Pressure (altimeter): 29.77 in. Hg (1008 hPa)
ob: KDMO 252213Z AUTO VRB03KT 1/2SM +RA FG BKN028 BKN045 OVC055 15/14 A2977 RMK AO2 PK WND 36026/2202 LTG DSNT N RAB02 P0032 T01500139
cycle: 22

Station Type Date Time Source
KDMO TAF UTC NOAA

Error!

Example: see airport list